Time;durP1;ratioP1;P1;durP2;ratioP2;P2;SDS_P1;SDS_P2;PMS_P1;PMS_P2;Temp;Humidity;BMP_temperature;BMP_pressure;BME280_temperature;BME280_humidity;BME280_pressure;Samples;Min_cycle;Max_cycle;Signal;HPM_P1;HPM_P2
2023/12/15 00:02:04;;;;;;;47.30;16.35;;;3.50;99.90;;;;;;4977305;28;20037;-63
2023/12/15 00:04:30;;;;;;;49.47;15.52;;;3.50;99.90;;;;;;4981432;28;20615;-63
2023/12/15 00:06:55;;;;;;;48.08;16.38;;;3.50;99.90;;;;;;4983784;28;20034;-63
2023/12/15 00:09:23;;;;;;;51.65;15.07;;;3.40;99.90;;;;;;4982744;28;20034;-63
2023/12/15 00:11:49;;;;;;;48.25;16.38;;;3.40;99.90;;;;;;4962764;28;20526;-63
2023/12/15 00:14:14;;;;;;;50.88;16.42;;;3.30;99.90;;;;;;4967418;28;20018;-63
2023/12/15 00:16:40;;;;;;;45.13;15.57;;;3.30;99.90;;;;;;4965306;28;20026;-64
2023/12/15 00:19:08;;;;;;;50.85;14.88;;;3.20;99.90;;;;;;4982469;28;20099;-64
2023/12/15 00:21:33;;;;;;;48.97;16.50;;;3.20;99.90;;;;;;4964842;28;20273;-64
2023/12/15 00:23:59;;;;;;;56.22;18.08;;;3.20;99.90;;;;;;4980855;28;20367;-64
2023/12/15 00:26:24;;;;;;;50.33;14.93;;;3.20;99.90;;;;;;4982630;28;20037;-64
2023/12/15 00:28:50;;;;;;;53.30;17.65;;;3.20;99.90;;;;;;4983156;28;20034;-64
2023/12/15 00:31:15;;;;;;;44.78;14.60;;;4.30;99.90;;;;;;4966635;28;20034;-64
2023/12/15 00:33:41;;;;;;;49.92;15.52;;;3.30;99.90;;;;;;4962824;28;20031;-64
2023/12/15 00:36:07;;;;;;;49.10;16.05;;;3.30;99.90;;;;;;4978352;28;20050;-64
2023/12/15 00:38:33;;;;;;;52.42;16.52;;;3.30;99.90;;;;;;4986186;28;20031;-64
2023/12/15 00:40:58;;;;;;;47.45;16.25;;;3.40;99.90;;;;;;4986301;28;20030;-64
2023/12/15 00:43:24;;;;;;;50.67;15.35;;;3.50;99.90;;;;;;4983509;28;20165;-64
2023/12/15 00:45:49;;;;;;;44.53;14.10;;;3.50;99.90;;;;;;4983937;28;20401;-64
2023/12/15 00:48:15;;;;;;;41.65;15.40;;;3.60;99.90;;;;;;4964934;28;20178;-64
2023/12/15 00:50:40;;;;;;;43.67;13.85;;;3.70;99.90;;;;;;4986887;28;20034;-64
2023/12/15 00:53:06;;;;;;;46.85;14.35;;;3.70;99.90;;;;;;4984001;28;20034;-64
2023/12/15 00:55:32;;;;;;;45.17;13.93;;;3.70;99.90;;;;;;4987707;28;20516;-64
2023/12/15 00:57:57;;;;;;;44.88;15.45;;;3.80;99.90;;;;;;4989048;28;20052;-64
2023/12/15 01:00:23;;;;;;;42.92;14.18;;;3.80;99.90;;;;;;4988259;28;20484;-64
2023/12/15 01:02:51;;;;;;;45.75;15.15;;;3.80;99.90;;;;;;4987938;28;20023;-63
2023/12/15 01:05:17;;;;;;;45.58;15.23;;;3.70;99.90;;;;;;4986910;28;20037;-64
2023/12/15 01:07:45;;;;;;;42.22;13.18;;;3.70;99.90;;;;;;4988813;28;20023;-64
2023/12/15 01:10:11;;;;;;;39.45;13.73;;;3.70;99.90;;;;;;4965378;28;20030;-64
2023/12/15 01:12:37;;;;;;;39.72;11.70;;;3.80;99.90;;;;;;4990126;28;20398;-64
2023/12/15 01:15:03;;;;;;;43.15;14.75;;;3.90;99.90;;;;;;4971124;28;20019;-64
2023/12/15 01:17:28;;;;;;;43.20;15.55;;;3.90;99.90;;;;;;4981548;28;20529;-64
2023/12/15 01:19:54;;;;;;;35.63;13.52;;;3.90;99.90;;;;;;4984822;28;20037;-64
2023/12/15 01:22:19;;;;;;;44.00;13.90;;;4.00;99.90;;;;;;4989835;28;20026;-64
2023/12/15 01:24:45;;;;;;;40.40;14.38;;;4.00;99.90;;;;;;4986841;28;20030;-64
2023/12/15 01:27:11;;;;;;;37.55;14.95;;;4.00;99.90;;;;;;4984170;28;20030;-64
2023/12/15 01:29:37;;;;;;;43.13;14.95;;;4.00;99.90;;;;;;4987443;28;20477;-64
2023/12/15 01:32:03;;;;;;;46.55;14.85;;;4.00;99.90;;;;;;4984701;28;20038;-64
2023/12/15 01:34:28;;;;;;;39.35;14.25;;;4.00;99.90;;;;;;4967793;28;20023;-64
2023/12/15 01:36:54;;;;;;;38.10;13.73;;;4.00;99.90;;;;;;4986575;28;20026;-64
2023/12/15 01:39:19;;;;;;;43.78;14.63;;;4.10;99.90;;;;;;4987933;28;20478;-64
2023/12/15 01:41:45;;;;;;;35.25;10.85;;;4.10;99.90;;;;;;4982787;28;20026;-64
2023/12/15 01:44:11;;;;;;;44.65;14.88;;;4.10;99.90;;;;;;4984515;28;20031;-64
2023/12/15 01:46:36;;;;;;;41.35;13.85;;;4.10;99.90;;;;;;4988627;28;20046;-64
2023/12/15 01:49:02;;;;;;;44.13;15.02;;;4.10;99.90;;;;;;4987222;28;20333;-64
2023/12/15 01:51:28;;;;;;;44.33;14.38;;;4.20;99.90;;;;;;4986969;28;20031;-64
2023/12/15 01:53:53;;;;;;;37.75;15.73;;;4.20;99.90;;;;;;4982252;28;20023;-64
2023/12/15 01:56:19;;;;;;;37.63;15.00;;;4.20;99.90;;;;;;4986263;28;20164;-64
2023/12/15 01:58:44;;;;;;;40.88;15.65;;;4.20;99.90;;;;;;4968064;28;20026;-64
2023/12/15 02:01:12;;;;;;;43.95;14.23;;;4.20;99.90;;;;;;4985276;28;20433;-64
2023/12/15 02:03:38;;;;;;;35.72;14.48;;;4.20;99.90;;;;;;4969022;28;20030;-64
2023/12/15 02:06:04;;;;;;;52.63;18.20;;;4.20;99.90;;;;;;4983961;28;20029;-64
2023/12/15 02:08:29;;;;;;;43.70;14.13;;;4.30;99.90;;;;;;4988132;28;20389;-64
2023/12/15 02:10:55;;;;;;;47.88;16.05;;;4.30;99.90;;;;;;4985396;28;20034;-64
2023/12/15 02:13:21;;;;;;;39.00;14.02;;;4.30;99.90;;;;;;4986608;28;20034;-64
2023/12/15 02:15:46;;;;;;;39.60;15.27;;;4.30;99.90;;;;;;4979988;28;20033;-64
2023/12/15 02:18:12;;;;;;;38.63;14.35;;;4.40;99.90;;;;;;4964011;28;20411;-64
2023/12/15 02:20:37;;;;;;;37.70;13.15;;;4.50;99.90;;;;;;4986183;28;20031;-64
2023/12/15 02:23:03;;;;;;;35.80;14.43;;;4.40;99.90;;;;;;4970545;28;20152;-64
2023/12/15 02:25:29;;;;;;;42.08;15.88;;;4.40;99.90;;;;;;4988396;28;20026;-64
2023/12/15 02:27:55;;;;;;;48.15;16.05;;;4.50;99.90;;;;;;4985007;28;20033;-64
2023/12/15 02:30:20;;;;;;;42.85;16.48;;;4.40;99.90;;;;;;4982991;28;20060;-64
2023/12/15 02:32:46;;;;;;;38.63;14.40;;;4.40;99.90;;;;;;4984963;28;20113;-63
2023/12/15 02:35:16;;;;;;;43.60;15.48;;;4.50;99.90;;;;;;4985115;28;20199;-64
2023/12/15 02:37:42;;;;;;;38.35;12.63;;;4.50;99.90;;;;;;4987179;28;20064;-64
2023/12/15 02:40:08;;;;;;;41.17;15.10;;;4.60;99.90;;;;;;4967846;28;20414;-64
2023/12/15 02:42:33;;;;;;;41.65;14.10;;;4.60;99.90;;;;;;4967992;28;20049;-64
2023/12/15 02:45:01;;;;;;;46.95;15.95;;;4.60;99.90;;;;;;4975573;28;20030;-64
2023/12/15 02:47:26;;;;;;;41.92;15.10;;;4.70;99.90;;;;;;4963359;28;20031;-64
2023/12/15 02:49:54;;;;;;;40.22;14.85;;;4.60;99.90;;;;;;4984670;28;20030;-64
2023/12/15 02:52:22;;;;;;;46.63;16.75;;;4.60;99.90;;;;;;4984685;28;20045;-64
2023/12/15 02:54:48;;;;;;;45.10;16.92;;;4.70;99.90;;;;;;4985533;28;20417;-64
2023/12/15 02:57:14;;;;;;;41.42;16.27;;;4.70;99.90;;;;;;4983177;28;20026;-64
2023/12/15 02:59:39;;;;;;;42.58;17.42;;;4.70;99.90;;;;;;4960744;28;20073;-64
2023/12/15 03:02:05;;;;;;;42.08;16.00;;;4.70;99.90;;;;;;4989203;28;20049;-64
2023/12/15 03:04:30;;;;;;;48.35;17.83;;;4.70;99.90;;;;;;4986721;28;20042;-64
2023/12/15 03:06:56;;;;;;;37.17;13.68;;;4.70;99.90;;;;;;4987651;28;20053;-64
2023/12/15 03:09:22;;;;;;;45.55;17.75;;;4.80;99.90;;;;;;4964227;28;20061;-64
2023/12/15 03:11:48;;;;;;;47.42;17.65;;;4.80;99.90;;;;;;4986848;28;20022;-64
2023/12/15 03:14:13;;;;;;;55.63;19.00;;;4.80;99.90;;;;;;4988097;28;20023;-64
2023/12/15 03:16:39;;;;;;;41.33;16.80;;;4.80;99.90;;;;;;4967950;28;20699;-64
2023/12/15 03:19:04;;;;;;;41.17;16.77;;;4.80;99.90;;;;;;4968857;28;20125;-64
2023/12/15 03:21:30;;;;;;;47.50;16.85;;;4.80;99.90;;;;;;4966345;28;20058;-64
2023/12/15 03:23:55;;;;;;;45.35;17.67;;;4.80;99.90;;;;;;4987084;28;20393;-63
2023/12/15 03:26:21;;;;;;;45.80;19.15;;;4.80;99.90;;;;;;4988623;28;20149;-64
2023/12/15 03:28:49;;;;;;;45.22;18.20;;;4.80;99.90;;;;;;4985978;28;20101;-64
2023/12/15 03:31:15;;;;;;;46.92;17.83;;;4.90;99.90;;;;;;4985226;28;20023;-64
2023/12/15 03:33:41;;;;;;;50.47;19.25;;;4.80;99.90;;;;;;4986785;28;20153;-64
2023/12/15 03:36:07;;;;;;;48.42;18.58;;;4.90;99.90;;;;;;4987937;28;20026;-64
2023/12/15 03:38:34;;;;;;;43.47;17.63;;;4.90;99.90;;;;;;4988151;28;20212;-64
2023/12/15 03:41:00;;;;;;;42.00;17.35;;;4.90;99.90;;;;;;4965361;28;20477;-64
2023/12/15 03:43:25;;;;;;;42.75;17.50;;;4.90;99.90;;;;;;4988018;28;20033;-64
2023/12/15 03:45:51;;;;;;;44.05;16.20;;;4.90;99.90;;;;;;4965011;28;20129;-64
2023/12/15 03:48:16;;;;;;;41.88;16.45;;;5.00;99.90;;;;;;4967338;28;20394;-64
2023/12/15 03:50:42;;;;;;;46.60;18.38;;;5.00;99.90;;;;;;4967383;28;20058;-64
2023/12/15 03:53:07;;;;;;;45.47;17.70;;;5.00;99.90;;;;;;4987030;28;20049;-64
2023/12/15 03:55:33;;;;;;;51.30;18.50;;;5.00;99.90;;;;;;4987456;28;20381;-64
2023/12/15 03:57:59;;;;;;;44.92;17.48;;;5.00;99.90;;;;;;4985568;28;20104;-64
2023/12/15 04:00:25;;;;;;;46.40;18.13;;;5.00;99.90;;;;;;4984262;28;20034;-64
2023/12/15 04:02:50;;;;;;;45.63;17.55;;;5.00;99.90;;;;;;4965048;28;20498;-64
2023/12/15 04:05:16;;;;;;;48.08;17.02;;;5.00;99.90;;;;;;4987085;28;20066;-64
2023/12/15 04:07:42;;;;;;;44.60;17.38;;;5.10;99.90;;;;;;4988116;28;20025;-63
2023/12/15 04:10:09;;;;;;;47.47;18.13;;;5.00;99.90;;;;;;4985406;28;20072;-63
2023/12/15 04:12:34;;;;;;;42.63;16.75;;;5.10;99.90;;;;;;4964600;28;20054;-64
2023/12/15 04:15:00;;;;;;;53.65;19.17;;;5.00;99.90;;;;;;4968107;28;20061;-63
2023/12/15 04:17:26;;;;;;;48.83;18.10;;;5.10;99.90;;;;;;4966669;28;20018;-64
2023/12/15 04:19:52;;;;;;;46.58;18.20;;;5.00;99.90;;;;;;4987982;28;20457;-64
2023/12/15 04:22:19;;;;;;;44.10;17.50;;;5.00;99.90;;;;;;4982123;28;20113;-64
2023/12/15 04:24:45;;;;;;;47.30;19.05;;;5.00;99.90;;;;;;4966928;28;20034;-64
2023/12/15 04:27:13;;;;;;;53.72;19.00;;;5.10;99.90;;;;;;4981304;28;20022;-64
2023/12/15 04:29:38;;;;;;;54.63;19.10;;;5.00;99.90;;;;;;4961955;28;20033;-64
2023/12/15 04:32:04;;;;;;;53.47;19.33;;;5.00;99.90;;;;;;4985236;28;20026;-64
2023/12/15 04:34:33;;;;;;;50.53;19.77;;;5.00;99.90;;;;;;4981592;28;20084;-64
2023/12/15 04:36:58;;;;;;;54.88;20.20;;;5.00;99.90;;;;;;4959115;28;20007;-64
2023/12/15 04:39:24;;;;;;;47.35;18.63;;;5.00;99.90;;;;;;4967557;28;20037;-64
2023/12/15 04:41:50;;;;;;;52.42;19.63;;;5.00;99.90;;;;;;4966587;28;20056;-64
2023/12/15 04:44:15;;;;;;;52.22;20.42;;;5.00;99.90;;;;;;4981450;28;20035;-64
2023/12/15 04:46:43;;;;;;;53.33;19.45;;;5.00;99.90;;;;;;4982518;28;20714;-64
2023/12/15 04:49:09;;;;;;;50.50;19.08;;;5.00;99.90;;;;;;4979675;28;20040;-64
2023/12/15 04:51:34;;;;;;;49.45;18.52;;;5.00;99.90;;;;;;4958818;28;20023;-63
2023/12/15 04:54:00;;;;;;;47.33;18.40;;;5.10;99.90;;;;;;4981897;28;20034;-64
2023/12/15 04:56:25;;;;;;;43.40;17.92;;;5.10;99.90;;;;;;4967602;28;20033;-63
2023/12/15 04:58:53;;;;;;;48.13;17.52;;;5.20;99.90;;;;;;4983127;28;20023;-63
2023/12/15 05:01:19;;;;;;;46.88;16.50;;;5.10;99.90;;;;;;4981774;28;20069;-64
2023/12/15 05:03:47;;;;;;;43.08;16.85;;;5.10;99.90;;;;;;4980197;28;20034;-64
2023/12/15 05:06:23;;;;;;;54.30;16.98;;;5.10;99.90;;;;;;4963422;28;20141;-63
2023/12/15 05:08:49;;;;;;;45.80;17.50;;;5.20;99.90;;;;;;4983474;28;20030;-64
2023/12/15 05:11:15;;;;;;;41.85;16.25;;;5.20;99.90;;;;;;4982650;28;20084;-64
2023/12/15 05:13:43;;;;;;;38.85;15.00;;;5.20;99.90;;;;;;4983173;28;20038;-64
2023/12/15 05:16:09;;;;;;;42.95;16.23;;;5.20;99.90;;;;;;4982509;28;20045;-63
2023/12/15 05:18:35;;;;;;;46.30;15.93;;;5.20;99.90;;;;;;4979764;28;20339;-63
2023/12/15 05:21:01;;;;;;;39.38;14.43;;;5.20;99.90;;;;;;4980812;28;20129;-63
2023/12/15 05:23:27;;;;;;;37.88;14.63;;;5.30;99.90;;;;;;4982587;28;20026;-63
2023/12/15 05:25:53;;;;;;;40.92;15.60;;;5.30;99.90;;;;;;4983599;28;20085;-63
2023/12/15 05:28:18;;;;;;;40.30;15.30;;;5.30;99.90;;;;;;4981720;28;20069;-63
2023/12/15 05:30:47;;;;;;;42.13;15.65;;;5.30;99.90;;;;;;4983289;28;20559;-63
2023/12/15 05:33:13;;;;;;;30.02;11.73;;;5.30;99.90;;;;;;4960905;28;20030;-63
2023/12/15 05:35:39;;;;;;;40.40;15.43;;;5.30;99.90;;;;;;4980538;28;20365;-63
2023/12/15 05:38:04;;;;;;;36.78;14.50;;;5.30;99.90;;;;;;4978611;28;20085;-63
2023/12/15 05:40:30;;;;;;;41.83;15.75;;;5.30;99.90;;;;;;4977436;28;20417;-63
2023/12/15 05:42:56;;;;;;;34.67;11.85;;;5.40;99.90;;;;;;4978513;28;20089;-63
2023/12/15 05:45:22;;;;;;;39.97;15.40;;;5.40;99.90;;;;;;4972960;28;20026;-63
2023/12/15 05:47:48;;;;;;;42.17;14.50;;;5.40;99.90;;;;;;4987507;28;20472;-63
2023/12/15 05:50:15;;;;;;;40.33;15.57;;;5.40;99.90;;;;;;4987179;28;20072;-63
2023/12/15 05:52:40;;;;;;;39.35;14.85;;;5.40;99.90;;;;;;4970793;28;20026;-63
2023/12/15 05:55:06;;;;;;;35.25;14.13;;;5.50;99.90;;;;;;4981319;28;20038;-63
2023/12/15 05:57:32;;;;;;;37.10;14.18;;;5.50;99.90;;;;;;4964855;28;20385;-63
2023/12/15 05:59:57;;;;;;;39.60;15.70;;;5.50;99.90;;;;;;4981016;28;20034;-63
2023/12/15 06:02:23;;;;;;;42.17;15.70;;;5.50;99.90;;;;;;4981148;28;20580;-63
2023/12/15 06:04:48;;;;;;;36.28;14.27;;;5.50;99.90;;;;;;4988810;28;20026;-62
2023/12/15 06:07:15;;;;;;;38.50;15.07;;;5.50;99.90;;;;;;4971124;28;20030;-62
2023/12/15 06:09:42;;;;;;;48.22;16.80;;;5.50;99.90;;;;;;4990273;28;20034;-63
2023/12/15 06:12:08;;;;;;;39.50;16.45;;;5.50;99.90;;;;;;4981910;28;20076;-62
2023/12/15 06:14:36;;;;;;;50.20;17.42;;;5.50;99.90;;;;;;4990620;28;20022;-62
2023/12/15 06:17:05;;;;;;;44.15;16.70;;;5.60;99.90;;;;;;4963312;28;20058;-62
2023/12/15 06:19:34;;;;;;;45.88;17.00;;;5.50;99.90;;;;;;4976412;28;20390;-63
2023/12/15 06:22:00;;;;;;;47.33;17.25;;;5.60;99.90;;;;;;4980836;28;20122;-62
2023/12/15 06:24:28;;;;;;;45.22;16.50;;;5.60;99.90;;;;;;4964646;28;20046;-63
2023/12/15 06:26:53;;;;;;;50.42;19.67;;;5.60;99.90;;;;;;4986369;28;20477;-63
2023/12/15 06:29:19;;;;;;;47.83;18.98;;;5.60;99.90;;;;;;4980235;28;20045;-64
2023/12/15 06:31:48;;;;;;;53.60;19.48;;;5.60;99.90;;;;;;4968724;28;20080;-63
2023/12/15 06:34:14;;;;;;;51.38;17.90;;;5.50;99.90;;;;;;4982984;28;20496;-62
2023/12/15 06:36:40;;;;;;;45.40;14.63;;;5.50;99.90;;;;;;4977372;28;20019;-63
2023/12/15 06:39:06;;;;;;;56.05;17.35;;;5.60;99.90;;;;;;4982847;28;20429;-62
2023/12/15 06:41:31;;;;;;;58.05;19.67;;;5.60;99.90;;;;;;4982602;28;20030;-62
2023/12/15 06:43:57;;;;;;;56.70;18.80;;;5.60;99.90;;;;;;4978599;28;20446;-65
2023/12/15 06:46:25;;;;;;;68.35;26.35;;;5.60;99.90;;;;;;4984745;28;20390;-63
2023/12/15 06:48:53;;;;;;;58.38;19.30;;;5.60;99.90;;;;;;4969723;28;20100;-62
2023/12/15 06:51:21;;;;;;;62.67;20.02;;;5.70;99.90;;;;;;4961285;28;20410;-63
2023/12/15 06:53:46;;;;;;;61.30;21.48;;;5.60;99.90;;;;;;4987317;28;20029;-65
2023/12/15 06:56:12;;;;;;;64.50;19.90;;;5.60;99.90;;;;;;4984163;28;20105;-63
2023/12/15 06:58:37;;;;;;;62.72;20.67;;;5.60;99.90;;;;;;4954350;28;20290;-64
2023/12/15 07:01:04;;;;;;;47.90;12.93;;;5.70;99.90;;;;;;4970854;28;20426;-63
2023/12/15 07:03:30;;;;;;;51.17;17.50;;;5.70;99.90;;;;;;4985300;28;20045;-63
2023/12/15 07:05:55;;;;;;;63.85;20.27;;;5.70;99.90;;;;;;4967321;28;20031;-62
2023/12/15 07:08:21;;;;;;;66.53;22.42;;;5.70;99.90;;;;;;4979042;28;20037;-63
2023/12/15 07:10:49;;;;;;;59.17;20.13;;;5.70;99.90;;;;;;4976482;28;20040;-63
2023/12/15 07:13:14;;;;;;;62.22;20.13;;;5.70;99.90;;;;;;4982610;28;20509;-64
2023/12/15 07:15:40;;;;;;;67.43;21.75;;;5.70;99.90;;;;;;4965069;28;20033;-64
2023/12/15 07:18:05;;;;;;;59.78;19.50;;;5.70;99.90;;;;;;4987106;28;20030;-64
2023/12/15 07:20:31;;;;;;;62.42;19.23;;;5.70;99.90;;;;;;4980833;28;20034;-64
2023/12/15 07:22:57;;;;;;;58.63;19.67;;;5.70;99.90;;;;;;4980713;28;20381;-64
2023/12/15 07:25:24;;;;;;;69.38;23.58;;;5.80;99.90;;;;;;4968053;28;20413;-64
2023/12/15 07:27:50;;;;;;;59.90;18.92;;;5.80;99.90;;;;;;4959815;28;20602;-64
2023/12/15 07:30:16;;;;;;;60.58;20.40;;;5.80;99.90;;;;;;4977046;28;20035;-63
2023/12/15 07:32:42;;;;;;;69.05;22.00;;;5.80;99.90;;;;;;4964379;28;20493;-64
2023/12/15 07:35:08;;;;;;;61.95;21.23;;;5.80;99.90;;;;;;4982499;28;20031;-64
2023/12/15 07:37:34;;;;;;;64.32;21.65;;;5.80;99.90;;;;;;4982145;28;20019;-64
2023/12/15 07:40:00;;;;;;;66.32;20.25;;;5.70;99.90;;;;;;4981985;28;20059;-64
2023/12/15 07:42:26;;;;;;;59.35;19.90;;;5.80;99.90;;;;;;4981402;28;20093;-63
2023/12/15 07:44:52;;;;;;;59.33;20.27;;;5.80;99.90;;;;;;4979364;28;20041;-64
2023/12/15 07:47:17;;;;;;;68.88;21.27;;;5.80;99.90;;;;;;4972826;28;20030;-64
2023/12/15 07:49:43;;;;;;;59.53;20.23;;;5.80;99.90;;;;;;4981591;28;20030;-64
2023/12/15 07:52:08;;;;;;;56.20;18.40;;;5.90;99.90;;;;;;4976038;28;20030;-64
2023/12/15 07:54:34;;;;;;;60.58;18.75;;;5.90;99.90;;;;;;4979986;28;20062;-64
2023/12/15 07:57:00;;;;;;;61.13;21.20;;;5.90;99.90;;;;;;4977205;28;20030;-64
2023/12/15 07:59:25;;;;;;;67.88;23.23;;;5.90;99.90;;;;;;4978644;28;20023;-64
2023/12/15 08:01:52;;;;;;;77.90;24.00;;;5.90;99.90;;;;;;4963565;28;20117;-63
2023/12/15 08:04:19;;;;;;;62.85;19.58;;;5.90;99.90;;;;;;4977091;28;20099;-64
2023/12/15 08:06:44;;;;;;;64.82;19.35;;;5.90;99.90;;;;;;4976972;28;20375;-63
2023/12/15 08:09:10;;;;;;;64.85;19.88;;;5.90;99.90;;;;;;4973511;28;20058;-63
2023/12/15 08:11:37;;;;;;;276.67;38.90;;;5.90;99.90;;;;;;4979110;28;20117;-64
2023/12/15 08:14:03;;;;;;;71.35;21.85;;;5.90;99.90;;;;;;4971955;28;20453;-65
2023/12/15 08:16:30;;;;;;;72.38;21.33;;;5.90;99.90;;;;;;4976295;28;20066;-63
2023/12/15 08:18:57;;;;;;;62.83;21.60;;;6.00;99.90;;;;;;4979889;28;20117;-64
2023/12/15 08:21:22;;;;;;;66.47;20.92;;;6.00;99.90;;;;;;4972396;28;20501;-64
2023/12/15 08:23:50;;;;;;;62.67;19.77;;;6.00;99.90;;;;;;4978390;28;20034;-64
2023/12/15 08:26:28;;;;;;;50.90;14.93;;;6.00;99.90;;;;;;4975445;28;20081;-64
2023/12/15 08:28:54;;;;;;;44.63;16.15;;;6.10;99.90;;;;;;4972372;28;20418;-63
2023/12/15 08:31:21;;;;;;;60.35;19.27;;;6.10;99.90;;;;;;4960192;28;20667;-64
2023/12/15 08:33:51;;;;;;;64.20;18.10;;;6.10;99.90;;;;;;4980950;28;20057;-64
2023/12/15 08:36:16;;;;;;;73.78;20.13;;;6.10;99.90;;;;;;4972746;28;20031;-64
2023/12/15 08:38:42;;;;;;;67.60;20.77;;;6.10;99.90;;;;;;4978136;28;20037;-64
2023/12/15 08:41:08;;;;;;;60.88;19.75;;;6.20;99.90;;;;;;4975366;28;20482;-64
2023/12/15 08:43:34;;;;;;;55.55;17.63;;;6.20;99.90;;;;;;4977560;28;20034;-64
2023/12/15 08:46:00;;;;;;;77.22;21.92;;;6.20;99.90;;;;;;4974949;28;20137;-64
2023/12/15 08:48:26;;;;;;;72.28;21.33;;;6.20;99.90;;;;;;4977571;28;20061;-65
2023/12/15 08:50:51;;;;;;;60.15;17.20;;;6.20;99.90;;;;;;4959390;28;20031;-64
2023/12/15 08:53:18;;;;;;;38.40;12.38;;;6.20;99.90;;;;;;4951100;28;20062;-64
2023/12/15 08:55:46;;;;;;;51.05;17.98;;;6.20;99.90;;;;;;4972420;28;20018;-64
2023/12/15 08:58:12;;;;;;;63.10;19.65;;;6.30;99.90;;;;;;4960481;28;20037;-65
2023/12/15 09:00:37;;;;;;;62.90;18.73;;;6.30;99.90;;;;;;4977800;28;20027;-65
2023/12/15 09:03:04;;;;;;;62.92;20.25;;;6.40;99.90;;;;;;4978108;28;20042;-65
2023/12/15 09:05:29;;;;;;;57.83;18.25;;;6.40;99.90;;;;;;4979774;28;20113;-65
2023/12/15 09:07:55;;;;;;;64.78;21.50;;;6.40;99.90;;;;;;4981085;28;20430;-64
2023/12/15 09:10:22;;;;;;;56.60;18.23;;;6.40;99.90;;;;;;4960053;28;20492;-64
2023/12/15 09:12:48;;;;;;;52.50;19.17;;;6.50;99.90;;;;;;4976812;28;20891;-64
2023/12/15 09:15:14;;;;;;;67.97;18.98;;;6.50;99.90;;;;;;4971683;28;20046;-65
2023/12/15 09:17:43;;;;;;;59.25;18.77;;;6.50;99.90;;;;;;4982653;28;20106;-65
2023/12/15 09:20:10;;;;;;;63.15;19.63;;;6.60;99.90;;;;;;4962691;28;20034;-65
2023/12/15 09:22:36;;;;;;;46.08;13.98;;;6.60;99.90;;;;;;4978590;28;20041;-65
2023/12/15 09:25:05;;;;;;;89.07;21.23;;;6.60;99.90;;;;;;4977731;28;20033;-65
2023/12/15 09:27:31;;;;;;;55.92;18.40;;;6.70;99.90;;;;;;4980390;28;20086;-65
2023/12/15 09:29:59;;;;;;;55.95;18.98;;;6.70;99.90;;;;;;4978597;28;20066;-65
2023/12/15 09:32:27;;;;;;;45.88;15.80;;;6.80;99.90;;;;;;4975044;28;20521;-65
2023/12/15 09:34:52;;;;;;;58.85;18.90;;;6.90;99.90;;;;;;4976951;28;20045;-65
2023/12/15 09:37:18;;;;;;;70.25;21.83;;;6.80;99.90;;;;;;4961245;28;20027;-65
2023/12/15 09:39:44;;;;;;;62.30;19.75;;;6.80;99.90;;;;;;4976528;28;20023;-65
2023/12/15 09:42:10;;;;;;;62.72;17.67;;;6.80;99.90;;;;;;4974423;28;20695;-65
2023/12/15 09:44:35;;;;;;;63.13;18.63;;;6.90;99.90;;;;;;4967568;28;20121;-65
2023/12/15 09:47:01;;;;;;;58.95;17.95;;;6.80;99.90;;;;;;4969773;28;20077;-65
2023/12/15 09:49:29;;;;;;;47.63;16.58;;;6.80;99.90;;;;;;4982377;28;20116;-65
2023/12/15 09:51:56;;;;;;;57.38;19.88;;;6.90;99.90;;;;;;4963210;28;20050;-65
2023/12/15 09:54:23;;;;;;;84.18;22.33;;;6.90;99.90;;;;;;4977523;28;20131;-64
2023/12/15 09:56:49;;;;;;;129.38;23.63;;;6.90;99.90;;;;;;4980730;28;20026;-64
2023/12/15 09:59:15;;;;;;;62.65;19.65;;;6.90;99.90;;;;;;4974643;28;20027;-65
2023/12/15 10:01:40;;;;;;;429.25;55.90;;;6.90;99.90;;;;;;4981613;28;20026;-65
2023/12/15 10:04:06;;;;;;;43.92;14.45;;;6.90;99.90;;;;;;4977918;28;20022;-65
2023/12/15 10:06:34;;;;;;;50.30;17.10;;;7.00;99.90;;;;;;4977276;28;20041;-65
2023/12/15 10:09:00;;;;;;;79.95;19.00;;;7.00;99.90;;;;;;4981983;28;20025;-65
2023/12/15 10:11:29;;;;;;;57.65;17.55;;;7.10;99.90;;;;;;4980635;28;20035;-65
2023/12/15 10:13:55;;;;;;;186.32;24.65;;;7.20;99.90;;;;;;4977892;28;20038;-65
2023/12/15 10:16:21;;;;;;;70.07;19.27;;;7.30;99.90;;;;;;4964374;28;20374;-65
2023/12/15 10:18:47;;;;;;;540.05;61.78;;;7.30;99.90;;;;;;4977080;28;20049;-65
2023/12/15 10:21:12;;;;;;;52.25;17.05;;;7.40;99.90;;;;;;4977088;28;20070;-65
2023/12/15 10:23:38;;;;;;;46.95;15.43;;;7.40;99.90;;;;;;4976061;28;20030;-65
2023/12/15 10:26:05;;;;;;;47.28;15.00;;;7.50;99.90;;;;;;4978392;28;20417;-65
2023/12/15 10:28:40;;;;;;;138.45;22.90;;;7.50;99.90;;;;;;4974818;28;20035;-66
2023/12/15 10:31:07;;;;;;;195.13;28.15;;;7.60;99.90;;;;;;4981547;28;20034;-66
2023/12/15 10:33:33;;;;;;;49.53;16.83;;;7.60;99.90;;;;;;4984248;28;20525;-65
2023/12/15 10:36:00;;;;;;;90.25;19.13;;;7.60;99.90;;;;;;4979679;28;20031;-66
2023/12/15 10:38:30;;;;;;;33.58;11.65;;;7.60;99.90;;;;;;4978842;28;20422;-65
2023/12/15 10:40:57;;;;;;;53.07;16.63;;;7.50;99.90;;;;;;4985689;28;20433;-65
2023/12/15 10:43:23;;;;;;;42.30;14.85;;;7.50;99.90;;;;;;4966569;28;20317;-65
2023/12/15 10:45:51;;;;;;;56.55;16.48;;;7.40;99.90;;;;;;4982760;28;20066;-65
2023/12/15 10:48:18;;;;;;;58.28;17.38;;;7.40;99.90;;;;;;4959048;28;20030;-66
2023/12/15 10:50:48;;;;;;;53.88;17.85;;;7.40;99.90;;;;;;4977653;28;20405;-66
2023/12/15 10:53:17;;;;;;;56.87;16.93;;;7.50;99.90;;;;;;4962778;28;20105;-66
2023/12/15 10:55:45;;;;;;;58.70;18.25;;;7.50;99.90;;;;;;4977137;28;20262;-65
2023/12/15 10:58:12;;;;;;;50.60;16.00;;;7.50;99.90;;;;;;4979144;28;20030;-65
2023/12/15 11:00:38;;;;;;;42.88;14.20;;;7.50;99.90;;;;;;4977794;28;20418;-65
2023/12/15 11:03:10;;;;;;;51.10;15.80;;;7.50;99.90;;;;;;4967177;28;20060;-65
2023/12/15 11:05:37;;;;;;;54.55;15.88;;;7.50;99.90;;;;;;4981707;28;20026;-65
2023/12/15 11:08:03;;;;;;;60.03;18.83;;;7.40;99.90;;;;;;4968109;28;20263;-65
2023/12/15 11:10:28;;;;;;;53.67;18.83;;;7.50;99.90;;;;;;4984631;28;20268;-65
2023/12/15 11:12:54;;;;;;;53.25;17.90;;;7.50;99.90;;;;;;4964886;28;20059;-65
2023/12/15 11:15:22;;;;;;;48.50;15.75;;;7.60;99.90;;;;;;4962085;28;20366;-65
2023/12/15 11:17:54;;;;;;;46.55;15.63;;;7.60;99.90;;;;;;4983462;28;20038;-66
2023/12/15 11:20:20;;;;;;;51.10;17.00;;;7.70;99.90;;;;;;4973679;28;20530;-66
2023/12/15 11:22:50;;;;;;;46.92;17.88;;;7.70;99.90;;;;;;4978849;28;20037;-65
2023/12/15 11:25:20;;;;;;;46.20;16.70;;;7.80;99.90;;;;;;4976995;28;20490;-65
2023/12/15 11:28:03;;;;;;;53.80;16.35;;;7.80;99.90;;;;;;4981238;28;20125;-66
2023/12/15 11:30:34;;;;;;;57.92;16.85;;;7.80;99.90;;;;;;4977967;28;20122;-66
2023/12/15 11:33:00;;;;;;;45.00;16.50;;;7.80;99.90;;;;;;4984220;28;20030;-66
2023/12/15 11:35:32;;;;;;;55.40;19.33;;;7.90;99.90;;;;;;4984948;28;20022;-65
2023/12/15 11:37:58;;;;;;;52.00;17.40;;;7.90;99.90;;;;;;4981369;28;20482;-65
2023/12/15 11:40:29;;;;;;;42.33;12.77;;;7.90;99.90;;;;;;4981647;28;20043;-65
2023/12/15 11:42:57;;;;;;;42.72;15.60;;;7.90;99.90;;;;;;4966711;28;20125;-65
2023/12/15 11:45:26;;;;;;;46.95;16.60;;;7.90;99.90;;;;;;4977306;28;20027;-65
2023/12/15 11:47:53;;;;;;;46.75;15.40;;;7.90;99.90;;;;;;4980574;28;20118;-65
2023/12/15 11:50:20;;;;;;;44.92;16.17;;;7.90;99.90;;;;;;4979603;28;20088;-65
2023/12/15 11:52:46;;;;;;;52.72;17.55;;;7.80;99.90;;;;;;4962320;28;20027;-65
2023/12/15 11:55:11;;;;;;;55.63;18.35;;;7.80;99.90;;;;;;4980025;28;20098;-66
2023/12/15 11:57:37;;;;;;;49.42;16.27;;;7.80;99.90;;;;;;4982771;28;20022;-66
2023/12/15 12:00:03;;;;;;;52.58;17.58;;;7.80;99.90;;;;;;4982300;28;20469;-67
2023/12/15 12:02:29;;;;;;;49.08;17.17;;;7.90;99.90;;;;;;4985949;28;20034;-67
2023/12/15 12:04:55;;;;;;;35.47;14.02;;;7.90;99.90;;;;;;4981231;28;20080;-67
2023/12/15 12:07:24;;;;;;;51.53;17.75;;;7.90;99.90;;;;;;4987249;28;20401;-66
2023/12/15 12:09:49;;;;;;;33.97;11.50;;;7.90;99.90;;;;;;4987490;28;20370;-66
2023/12/15 12:12:15;;;;;;;50.53;15.95;;;7.90;99.90;;;;;;4986710;28;20027;-65
2023/12/15 12:14:42;;;;;;;51.78;18.48;;;7.90;99.90;;;;;;4980629;28;20030;-64
2023/12/15 12:17:10;;;;;;;53.10;16.58;;;7.90;99.90;;;;;;4979614;28;20026;-64
2023/12/15 12:19:41;;;;;;;46.55;16.92;;;8.00;99.90;;;;;;4980670;28;20066;-66
2023/12/15 12:22:11;;;;;;;45.55;15.57;;;8.10;99.90;;;;;;4978232;28;20420;-64
2023/12/15 12:24:37;;;;;;;49.25;16.75;;;8.00;99.90;;;;;;4987040;28;20515;-64
2023/12/15 12:27:05;;;;;;;57.28;16.48;;;8.00;99.90;;;;;;4966116;28;20026;-65
2023/12/15 12:29:31;;;;;;;46.92;15.20;;;8.00;99.90;;;;;;4976774;28;20695;-64
2023/12/15 12:31:57;;;;;;;50.05;17.98;;;8.00;99.90;;;;;;4987563;28;20369;-63